Time;durP1;ratioP1;P1;durP2;ratioP2;P2;SDS_P1;SDS_P2;PMS_P1;PMS_P2;Temp;Humidity;BMP_temperature;BMP_pressure;BME280_temperature;BME280_humidity;BME280_pressure;Samples;Min_cycle;Max_cycle;Signal;HPM_P1;HPM_P2
2022/04/30 00:02:11;;;;;;;20.43;14.37;;;15.20;99.90;;;;;;5067278;28;20426;-73
2022/04/30 00:04:39;;;;;;;25.33;13.73;;;15.20;99.90;;;;;;5069600;28;20216;-72
2022/04/30 00:07:05;;;;;;;21.27;12.77;;;15.10;99.90;;;;;;5059399;28;20494;-73
2022/04/30 00:09:31;;;;;;;24.87;13.33;;;15.10;99.90;;;;;;5069930;28;20430;-73
2022/04/30 00:11:57;;;;;;;19.03;12.50;;;15.10;99.90;;;;;;5062353;28;20756;-72
2022/04/30 00:14:24;;;;;;;19.40;12.10;;;15.10;99.90;;;;;;5068630;28;20446;-72
2022/04/30 00:16:50;;;;;;;25.83;13.27;;;15.10;99.90;;;;;;5066394;28;20262;-72
2022/04/30 00:19:15;;;;;;;19.10;12.77;;;15.10;99.90;;;;;;5068502;28;20422;-72
2022/04/30 00:21:41;;;;;;;22.73;15.37;;;15.00;99.90;;;;;;5067832;28;20212;-72
2022/04/30 00:24:07;;;;;;;24.23;15.47;;;14.90;99.90;;;;;;5068886;28;20195;-73
2022/04/30 00:26:33;;;;;;;25.37;15.23;;;14.90;99.90;;;;;;5067804;28;20407;-72
2022/04/30 00:28:58;;;;;;;22.83;14.60;;;14.80;99.90;;;;;;5068537;28;20180;-72
2022/04/30 00:31:26;;;;;;;23.80;15.00;;;14.70;99.90;;;;;;5067099;28;20365;-72
2022/04/30 00:33:52;;;;;;;28.93;16.07;;;14.40;99.90;;;;;;5067578;28;20207;-72
2022/04/30 00:36:18;;;;;;;27.67;16.73;;;14.60;99.90;;;;;;5068218;28;20450;-72
2022/04/30 00:38:43;;;;;;;26.93;15.90;;;14.60;99.90;;;;;;5068386;28;20184;-72
2022/04/30 00:41:10;;;;;;;22.87;16.60;;;14.60;99.90;;;;;;5060249;28;20180;-73
2022/04/30 00:43:45;;;;;;;26.73;15.67;;;14.50;99.90;;;;;;5065786;28;20197;-71
2022/04/30 00:46:18;;;;;;;33.17;16.63;;;14.50;99.90;;;;;;5064739;28;20430;-71
2022/04/30 00:48:45;;;;;;;29.20;16.53;;;14.40;99.90;;;;;;5065104;28;20828;-72
2022/04/30 00:51:12;;;;;;;27.00;16.70;;;14.30;99.90;;;;;;5059830;28;20549;-72
2022/04/30 00:53:39;;;;;;;25.43;16.10;;;14.20;99.90;;;;;;5068436;28;20800;-73
2022/04/30 00:56:09;;;;;;;27.17;16.57;;;14.30;99.90;;;;;;5065607;28;20504;-73
2022/04/30 00:58:37;;;;;;;26.50;16.80;;;14.30;99.90;;;;;;5058812;28;20730;-71
2022/04/30 01:01:04;;;;;;;28.03;17.27;;;14.30;99.90;;;;;;5063669;28;20430;-72
2022/04/30 01:03:30;;;;;;;25.63;17.27;;;14.10;99.90;;;;;;5068081;28;20508;-73
2022/04/30 01:05:55;;;;;;;29.23;17.77;;;14.10;99.90;;;;;;5064684;28;21017;-72
2022/04/30 01:08:21;;;;;;;26.80;16.93;;;14.10;99.90;;;;;;5064980;28;20619;-73
2022/04/30 01:10:47;;;;;;;30.33;16.70;;;14.00;99.90;;;;;;5067558;28;20203;-72
2022/04/30 01:13:13;;;;;;;26.53;17.83;;;13.90;99.90;;;;;;5066497;28;20189;-72
2022/04/30 01:15:39;;;;;;;31.40;17.97;;;13.80;99.90;;;;;;5066219;28;20220;-72
2022/04/30 01:18:08;;;;;;;27.70;17.13;;;13.80;99.90;;;;;;5066389;28;20774;-72
2022/04/30 01:20:35;;;;;;;25.30;17.00;;;13.80;99.90;;;;;;5067356;28;20549;-72
2022/04/30 01:23:02;;;;;;;29.67;18.37;;;13.70;99.90;;;;;;5065124;28;21005;-72
2022/04/30 01:25:30;;;;;;;26.80;17.07;;;13.70;99.90;;;;;;5065008;28;20913;-72
2022/04/30 01:27:58;;;;;;;26.40;16.87;;;13.70;99.90;;;;;;5067116;28;20429;-72
2022/04/30 01:30:24;;;;;;;31.40;17.70;;;13.70;99.90;;;;;;5067918;28;20457;-72
2022/04/30 01:38:20;;;;;;;29.03;17.60;;;13.60;99.90;;;;;;5068045;28;20406;-73
2022/04/30 01:40:46;;;;;;;28.67;17.70;;;13.50;99.90;;;;;;5065016;28;20994;-72
2022/04/30 01:43:13;;;;;;;29.37;17.50;;;13.40;99.90;;;;;;5066919;28;20418;-72
2022/04/30 01:45:38;;;;;;;27.70;17.83;;;13.40;99.90;;;;;;5065722;28;20758;-72
2022/04/30 01:48:05;;;;;;;27.60;17.10;;;13.30;99.90;;;;;;5064381;28;20439;-72
2022/04/30 01:50:33;;;;;;;31.47;17.10;;;13.30;99.90;;;;;;5066455;28;20188;-74
2022/04/30 01:52:59;;;;;;;27.83;17.53;;;13.20;99.90;;;;;;5065516;28;20415;-72
2022/04/30 01:55:24;;;;;;;29.67;18.50;;;13.20;99.90;;;;;;5066776;28;20535;-72
2022/04/30 01:57:50;;;;;;;30.40;17.87;;;13.20;99.90;;;;;;5064466;28;20227;-72
2022/04/30 02:00:20;;;;;;;28.33;17.70;;;13.20;99.90;;;;;;5067533;28;20218;-73
2022/04/30 02:02:48;;;;;;;25.73;17.03;;;13.10;99.90;;;;;;5064674;28;20195;-72
2022/04/30 02:05:14;;;;;;;33.70;17.30;;;13.10;99.90;;;;;;5065910;28;20435;-72
2022/04/30 02:07:49;;;;;;;26.27;17.87;;;13.20;99.90;;;;;;5066493;28;20414;-72
2022/04/30 02:10:18;;;;;;;27.90;17.20;;;13.20;99.90;;;;;;5060691;28;20654;-73
2022/04/30 02:12:44;;;;;;;30.00;18.10;;;13.20;99.90;;;;;;5065999;28;20905;-71
2022/04/30 02:15:13;;;;;;;34.70;17.97;;;13.20;99.90;;;;;;5061198;28;20465;-73
2022/04/30 02:17:41;;;;;;;28.47;16.97;;;13.20;99.90;;;;;;5064547;28;20576;-72
2022/04/30 02:20:24;;;;;;;30.87;16.90;;;13.20;99.90;;;;;;5067506;28;20416;-72
2022/04/30 02:22:52;;;;;;;29.17;17.77;;;13.10;99.90;;;;;;5066183;28;20710;-72
2022/04/30 02:25:18;;;;;;;29.60;16.70;;;13.00;99.90;;;;;;5067294;28;20435;-72
2022/04/30 02:27:46;;;;;;;28.73;18.23;;;13.00;99.90;;;;;;5065906;28;20517;-72
2022/04/30 02:30:17;;;;;;;25.73;17.80;;;13.00;99.90;;;;;;5065798;28;20419;-72
2022/04/30 02:32:48;;;;;;;26.73;17.00;;;13.00;99.90;;;;;;5065525;28;20450;-72
2022/04/30 02:35:19;;;;;;;23.30;16.40;;;13.00;99.90;;;;;;5060792;28;20548;-72
2022/04/30 02:37:45;;;;;;;27.47;16.97;;;13.00;99.90;;;;;;5066267;28;20860;-72
2022/04/30 02:40:18;;;;;;;35.40;16.77;;;13.00;99.90;;;;;;5065259;28;20803;-72
2022/04/30 02:42:44;;;;;;;26.60;15.47;;;12.90;99.90;;;;;;5065178;28;20924;-72
2022/04/30 02:45:11;;;;;;;27.77;16.07;;;12.90;99.90;;;;;;5068616;28;20465;-72
2022/04/30 02:47:41;;;;;;;27.57;16.13;;;12.90;99.90;;;;;;5068054;28;20545;-72
2022/04/30 02:50:09;;;;;;;24.63;14.83;;;12.90;99.90;;;;;;5071118;28;20492;-72
2022/04/30 02:52:35;;;;;;;28.20;16.30;;;12.90;99.90;;;;;;5067128;28;20441;-72
2022/04/30 02:55:01;;;;;;;26.63;15.70;;;12.90;99.90;;;;;;5070128;28;20458;-72
2022/04/30 02:59:53;;;;;;;26.10;15.53;;;12.90;99.90;;;;;;5069069;28;20808;-73
2022/04/30 03:00:35;;;;;;;24.43;15.10;;;12.90;99.90;;;;;;5065520;28;20203;-72
2022/04/30 03:03:00;;;;;;;27.90;15.47;;;12.90;99.90;;;;;;5063172;28;20450;-71
2022/04/30 03:05:26;;;;;;;23.43;14.07;;;12.90;99.90;;;;;;5068426;28;20511;-72
2022/04/30 03:07:53;;;;;;;25.40;14.80;;;13.20;99.90;;;;;;5069511;28;20185;-72
2022/04/30 03:10:19;;;;;;;24.73;14.77;;;12.80;99.90;;;;;;5068917;28;20579;-72
2022/04/30 03:12:45;;;;;;;22.73;13.10;;;12.80;99.90;;;;;;5067895;28;20430;-72
2022/04/30 03:15:11;;;;;;;20.50;13.97;;;12.80;99.90;;;;;;5069643;28;20526;-72
2022/04/30 03:23:06;;;;;;;23.77;13.40;;;12.80;99.90;;;;;;5069249;28;20572;-72
2022/04/30 03:25:32;;;;;;;23.07;13.00;;;12.70;99.90;;;;;;5069841;28;20575;-71
2022/04/30 03:27:58;;;;;;;22.47;13.30;;;12.70;99.90;;;;;;5068355;28;20176;-72
2022/04/30 03:30:23;;;;;;;23.00;13.87;;;12.50;99.90;;;;;;5070276;28;20307;-72
2022/04/30 03:32:50;;;;;;;21.67;13.90;;;12.60;99.90;;;;;;5068278;28;20204;-72
2022/04/30 03:35:15;;;;;;;22.13;13.97;;;12.50;99.90;;;;;;5070069;28;20687;-72
2022/04/30 03:37:41;;;;;;;20.43;13.63;;;12.50;99.90;;;;;;5069155;28;20463;-72
2022/04/30 03:40:07;;;;;;;21.93;14.07;;;12.40;99.90;;;;;;5068835;28;20199;-72
2022/04/30 03:42:33;;;;;;;18.23;13.03;;;12.30;99.90;;;;;;5067799;28;20287;-71
2022/04/30 03:45:01;;;;;;;22.20;13.73;;;12.30;99.90;;;;;;5068757;28;20460;-72
2022/04/30 03:47:27;;;;;;;22.03;13.80;;;12.30;99.90;;;;;;5068224;28;20443;-72
2022/04/30 03:49:52;;;;;;;24.50;14.80;;;12.20;99.90;;;;;;5067387;28;20435;-71
2022/04/30 03:52:18;;;;;;;22.67;14.30;;;12.20;99.90;;;;;;5069414;28;20344;-72
2022/04/30 03:54:43;;;;;;;21.50;14.57;;;12.20;99.90;;;;;;5068204;28;20196;-72
2022/04/30 03:57:09;;;;;;;20.87;13.17;;;12.20;99.90;;;;;;5067785;28;20248;-72
2022/04/30 03:59:35;;;;;;;24.00;14.40;;;12.20;99.90;;;;;;5069634;28;20161;-72
2022/04/30 04:02:00;;;;;;;19.50;13.97;;;12.20;99.90;;;;;;5067962;28;20546;-72
2022/04/30 04:04:28;;;;;;;23.20;15.10;;;12.30;99.90;;;;;;5069761;28;20203;-72
2022/04/30 04:06:54;;;;;;;23.37;13.23;;;12.30;99.90;;;;;;5068314;28;20184;-73
2022/04/30 04:09:19;;;;;;;21.80;14.90;;;12.30;99.90;;;;;;5069534;28;20426;-72
2022/04/30 04:11:45;;;;;;;23.60;14.07;;;12.30;99.90;;;;;;5065274;28;20362;-73
2022/04/30 04:19:38;;;;;;;25.93;15.50;;;12.40;99.90;;;;;;5069470;28;20564;-72
2022/04/30 04:22:04;;;;;;;24.33;15.33;;;12.30;99.90;;;;;;5065628;28;20441;-72
2022/04/30 04:27:17;;;;;;;24.80;15.57;;;12.10;99.90;;;;;;5067329;28;20267;-72
2022/04/30 04:29:42;;;;;;;21.73;14.70;;;12.10;99.90;;;;;;5068710;28;20407;-72
2022/04/30 04:32:08;;;;;;;26.33;16.30;;;12.00;99.90;;;;;;5067323;28;20751;-72
2022/04/30 04:34:34;;;;;;;22.30;14.73;;;12.00;99.90;;;;;;5068466;28;20203;-72
2022/04/30 04:36:59;;;;;;;32.93;15.50;;;11.90;99.90;;;;;;5066875;28;20238;-72
2022/04/30 04:39:25;;;;;;;29.77;16.43;;;11.90;99.90;;;;;;5067850;28;20232;-73
2022/04/30 04:41:50;;;;;;;24.57;15.30;;;12.00;99.90;;;;;;5066964;28;20616;-71
2022/04/30 04:44:16;;;;;;;29.27;16.00;;;12.00;99.90;;;;;;5066719;28;20207;-73
2022/04/30 04:46:42;;;;;;;26.57;16.80;;;12.00;99.90;;;;;;5064567;28;20176;-71
2022/04/30 04:49:10;;;;;;;28.73;17.13;;;11.90;99.90;;;;;;5068560;28;20607;-72
2022/04/30 04:51:35;;;;;;;24.47;17.03;;;11.80;99.90;;;;;;5066994;28;20433;-72
2022/04/30 04:54:02;;;;;;;33.50;16.00;;;11.80;99.90;;;;;;5066201;28;20447;-72
2022/04/30 04:56:28;;;;;;;30.30;16.40;;;11.80;99.90;;;;;;5067090;28;20227;-72
2022/04/30 04:58:53;;;;;;;29.40;16.67;;;11.80;99.90;;;;;;5059482;28;20882;-72
2022/04/30 05:01:19;;;;;;;26.97;16.30;;;11.90;99.90;;;;;;5066655;28;20553;-72
2022/04/30 05:03:44;;;;;;;28.93;18.10;;;11.90;99.90;;;;;;5067465;28;20223;-72
2022/04/30 05:06:10;;;;;;;25.83;16.90;;;11.90;99.90;;;;;;5067470;28;20317;-72
2022/04/30 05:08:36;;;;;;;28.93;16.87;;;11.90;99.90;;;;;;5069557;28;20535;-72
2022/04/30 05:11:02;;;;;;;25.93;16.47;;;11.90;99.90;;;;;;5066983;28;20491;-72
2022/04/30 05:13:27;;;;;;;26.70;17.80;;;11.80;99.90;;;;;;5068403;28;20526;-71
2022/04/30 05:15:53;;;;;;;30.03;18.53;;;11.90;99.90;;;;;;5066201;28;20216;-72
2022/04/30 05:18:19;;;;;;;24.80;17.17;;;11.90;99.90;;;;;;5066378;28;20215;-71
2022/04/30 05:20:46;;;;;;;25.60;17.03;;;11.80;99.90;;;;;;5067775;28;20168;-71
2022/04/30 05:23:11;;;;;;;26.70;17.40;;;11.80;99.90;;;;;;5064845;28;21007;-71
2022/04/30 05:25:40;;;;;;;27.30;17.83;;;11.90;99.90;;;;;;5065576;28;20465;-72
2022/04/30 05:28:10;;;;;;;27.97;17.90;;;12.00;99.90;;;;;;5066880;28;20180;-72
2022/04/30 05:30:36;;;;;;;29.50;18.30;;;12.00;99.90;;;;;;5067669;28;20510;-72
2022/04/30 05:33:02;;;;;;;26.60;17.80;;;12.10;99.90;;;;;;5065682;28;20450;-72
2022/04/30 05:35:27;;;;;;;28.90;17.30;;;12.10;99.90;;;;;;5067341;28;20457;-72
2022/04/30 05:37:54;;;;;;;24.77;16.37;;;12.10;99.90;;;;;;5067097;28;20203;-71
2022/04/30 05:40:20;;;;;;;30.17;17.20;;;12.00;99.90;;;;;;5064875;28;20435;-72
2022/04/30 05:42:45;;;;;;;18.60;11.50;;;12.00;99.90;;;;;;5066493;28;20283;-72
2022/04/30 05:45:11;;;;;;;18.77;10.40;;;12.00;99.90;;;;;;5067097;28;20781;-72
2022/04/30 05:47:37;;;;;;;20.23;9.10;;;12.10;99.90;;;;;;5065345;28;20532;-72
2022/04/30 05:50:04;;;;;;;19.10;12.00;;;12.10;99.90;;;;;;5065368;28;20328;-71
2022/04/30 05:52:30;;;;;;;24.00;12.37;;;12.00;99.90;;;;;;5064457;28;20204;-72
2022/04/30 05:54:55;;;;;;;25.47;14.77;;;12.00;99.90;;;;;;5066260;28;20477;-73
2022/04/30 05:57:21;;;;;;;26.40;11.90;;;12.00;99.90;;;;;;5065502;28;20667;-72
2022/04/30 05:59:46;;;;;;;28.60;17.70;;;12.00;99.90;;;;;;5065425;28;20173;-72
2022/04/30 06:02:12;;;;;;;28.97;17.27;;;12.10;99.90;;;;;;5066213;28;20200;-72
2022/04/30 06:04:37;;;;;;;27.30;16.70;;;12.10;99.90;;;;;;5064885;28;20568;-71
2022/04/30 06:07:03;;;;;;;30.43;17.13;;;12.10;99.90;;;;;;5064583;28;20217;-73
2022/04/30 06:09:28;;;;;;;27.90;17.90;;;12.10;99.90;;;;;;5065280;28;20187;-72
2022/04/30 06:11:54;;;;;;;29.53;17.53;;;12.10;99.90;;;;;;5065319;28;20297;-72
2022/04/30 06:14:19;;;;;;;30.33;19.40;;;12.10;99.90;;;;;;5065750;28;20208;-72
2022/04/30 06:16:45;;;;;;;30.20;18.60;;;12.00;99.90;;;;;;5064517;28;20658;-72
2022/04/30 06:19:10;;;;;;;35.40;18.83;;;12.10;99.90;;;;;;5063330;28;20264;-72
2022/04/30 06:21:36;;;;;;;28.90;18.27;;;12.10;99.90;;;;;;5068307;28;20200;-72
2022/04/30 06:24:01;;;;;;;30.37;18.90;;;12.10;99.90;;;;;;5071473;28;20260;-72
2022/04/30 06:26:27;;;;;;;34.87;19.20;;;12.00;99.90;;;;;;5070963;28;20185;-72
2022/04/30 06:28:52;;;;;;;28.77;19.33;;;12.00;99.90;;;;;;5068867;28;20180;-72
2022/04/30 06:31:18;;;;;;;30.20;19.60;;;12.00;99.90;;;;;;5067902;28;20196;-71
2022/04/30 06:33:43;;;;;;;39.40;20.87;;;12.00;99.90;;;;;;5069184;28;20211;-72
2022/04/30 06:36:09;;;;;;;31.37;19.70;;;12.00;99.90;;;;;;5070197;28;20363;-72
2022/04/30 06:38:34;;;;;;;30.23;18.93;;;12.00;99.90;;;;;;5071163;28;20538;-72
2022/04/30 06:41:00;;;;;;;41.27;20.40;;;11.90;99.90;;;;;;5068724;28;20664;-72
2022/04/30 06:43:25;;;;;;;31.03;19.03;;;11.90;99.90;;;;;;5067697;28;20220;-72
2022/04/30 06:45:51;;;;;;;39.00;22.10;;;11.90;99.90;;;;;;5067807;28;20288;-72
2022/04/30 06:48:17;;;;;;;32.90;19.50;;;12.00;99.90;;;;;;5069132;28;20267;-72
2022/04/30 06:50:43;;;;;;;39.90;18.43;;;12.00;99.90;;;;;;5068883;28;20957;-72
2022/04/30 06:58:42;;;;;;;33.27;19.60;;;11.80;99.90;;;;;;5062289;28;20537;-71
2022/04/30 07:03:49;;;;;;;32.07;18.90;;;11.70;99.90;;;;;;5070325;28;20451;-72
2022/04/30 07:06:16;;;;;;;37.43;20.03;;;11.70;99.90;;;;;;5069431;28;20453;-72
2022/04/30 07:08:41;;;;;;;35.73;19.67;;;11.70;99.90;;;;;;5070763;28;20658;-72
2022/04/30 07:11:07;;;;;;;33.40;19.70;;;11.70;99.90;;;;;;5068974;28;20545;-72
2022/04/30 07:13:32;;;;;;;40.23;20.00;;;11.80;99.90;;;;;;5068323;28;20275;-71
2022/04/30 07:15:58;;;;;;;36.80;20.87;;;11.70;99.90;;;;;;5067878;28;20215;-72
2022/04/30 07:18:24;;;;;;;34.80;20.87;;;11.80;99.90;;;;;;5068722;28;20176;-72
2022/04/30 07:20:51;;;;;;;37.07;20.90;;;11.90;99.90;;;;;;5069523;28;20189;-72
2022/04/30 07:23:17;;;;;;;36.60;22.20;;;11.80;99.90;;;;;;5067809;28;20181;-72
2022/04/30 07:25:42;;;;;;;39.60;22.17;;;11.90;99.90;;;;;;5066826;28;20449;-72
2022/04/30 07:28:08;;;;;;;33.60;21.73;;;11.90;99.90;;;;;;5069698;28;20419;-71
2022/04/30 07:30:33;;;;;;;46.07;24.10;;;11.80;99.90;;;;;;5064145;28;20432;-72
2022/04/30 07:32:59;;;;;;;35.93;23.70;;;11.90;99.90;;;;;;5067485;28;20279;-72
2022/04/30 07:35:25;;;;;;;34.67;22.10;;;11.90;99.90;;;;;;5070065;28;20208;-70
2022/04/30 07:37:50;;;;;;;41.70;24.00;;;11.90;99.90;;;;;;5070229;28;20185;-72
2022/04/30 07:40:16;;;;;;;39.17;23.90;;;12.00;99.90;;;;;;5065605;28;20183;-71
2022/04/30 07:42:41;;;;;;;35.70;22.90;;;12.00;99.90;;;;;;5061816;28;20173;-71
2022/04/30 07:45:07;;;;;;;39.53;23.83;;;12.00;99.90;;;;;;5061942;28;20200;-72
2022/04/30 07:47:33;;;;;;;37.43;23.07;;;12.00;99.90;;;;;;5069841;28;20220;-72
2022/04/30 07:49:58;;;;;;;36.90;23.40;;;11.90;99.90;;;;;;5070739;28;20840;-72
2022/04/30 07:52:25;;;;;;;40.53;23.20;;;11.90;99.90;;;;;;5068229;28;20622;-72
2022/04/30 07:54:51;;;;;;;34.63;20.70;;;11.90;99.90;;;;;;5068638;28;20371;-72
2022/04/30 07:57:16;;;;;;;32.37;22.13;;;11.90;99.90;;;;;;5068558;28;21057;-72
2022/04/30 07:59:44;;;;;;;31.93;19.73;;;11.80;99.90;;;;;;5070676;28;20625;-79
2022/04/30 08:02:10;;;;;;;27.47;18.43;;;11.80;99.90;;;;;;5067286;28;20268;-74
2022/04/30 08:04:35;;;;;;;32.50;20.90;;;11.80;99.90;;;;;;5068929;28;20482;-73
2022/04/30 08:07:01;;;;;;;35.67;20.70;;;11.90;99.90;;;;;;5070310;28;20922;-74
2022/04/30 08:09:26;;;;;;;29.67;20.50;;;11.90;99.90;;;;;;5069090;28;20278;-75
2022/04/30 08:11:52;;;;;;;26.53;18.23;;;11.90;99.90;;;;;;5065330;28;20287;-75
2022/04/30 08:14:17;;;;;;;34.13;20.67;;;12.00;99.90;;;;;;5062287;28;20300;-75
2022/04/30 08:16:43;;;;;;;34.20;20.17;;;11.90;99.90;;;;;;5066174;28;20208;-74
2022/04/30 08:19:08;;;;;;;29.20;19.63;;;11.90;99.90;;;;;;5070103;28;20351;-74
2022/04/30 08:21:34;;;;;;;34.63;19.80;;;11.80;99.90;;;;;;5069181;28;20211;-75
2022/04/30 08:24:00;;;;;;;30.90;19.50;;;11.90;99.90;;;;;;5067755;28;20201;-74
2022/04/30 08:26:25;;;;;;;29.87;19.10;;;11.90;99.90;;;;;;5064170;28;20192;-73
2022/04/30 08:28:51;;;;;;;26.30;17.60;;;11.90;99.90;;;;;;5067051;28;20587;-75
2022/04/30 08:31:18;;;;;;;34.30;20.60;;;11.90;99.90;;;;;;5065799;28;20180;-74
2022/04/30 08:33:43;;;;;;;27.10;18.77;;;11.80;99.90;;;;;;5063462;28;20515;-75
2022/04/30 08:36:09;;;;;;;32.07;18.97;;;11.90;99.90;;;;;;5066867;28;20545;-74
2022/04/30 08:38:34;;;;;;;27.37;20.87;;;11.90;99.90;;;;;;5067603;28;20199;-76
2022/04/30 08:41:00;;;;;;;31.53;21.17;;;11.80;99.90;;;;;;5062925;28;20267;-72
2022/04/30 08:43:28;;;;;;;35.87;23.10;;;11.80;99.90;;;;;;5064372;28;20216;-73
2022/04/30 08:45:53;;;;;;;32.20;21.40;;;11.80;99.90;;;;;;5066359;28;20181;-73
2022/04/30 08:48:19;;;;;;;38.53;23.17;;;11.70;99.90;;;;;;5067070;28;20437;-72
2022/04/30 08:50:47;;;;;;;42.33;25.10;;;11.70;99.90;;;;;;5064507;28;20599;-71
2022/04/30 08:53:14;;;;;;;43.50;24.80;;;11.60;99.90;;;;;;5065766;28;20184;-72
2022/04/30 08:55:40;;;;;;;33.97;21.63;;;11.60;99.90;;;;;;5068821;28;20842;-72
2022/04/30 08:58:05;;;;;;;35.30;22.83;;;11.50;99.90;;;;;;5064587;28;20428;-71
2022/04/30 09:00:45;;;;;;;42.10;25.13;;;11.50;99.90;;;;;;5049080;28;20514;-72
2022/04/30 09:03:15;;;;;;;44.30;24.47;;;11.50;99.90;;;;;;5064375;28;20259;-70
2022/04/30 09:05:41;;;;;;;40.03;22.87;;;11.60;99.90;;;;;;5064543;28;20422;-72
2022/04/30 09:08:07;;;;;;;39.50;23.30;;;11.60;99.90;;;;;;5068777;28;20404;-72
2022/04/30 09:10:34;;;;;;;38.50;23.30;;;11.60;99.90;;;;;;5066942;28;20197;-72
2022/04/30 09:13:12;;;;;;;38.17;21.70;;;11.60;99.90;;;;;;5061730;28;20611;-71
2022/04/30 09:15:42;;;;;;;32.80;20.77;;;11.60;99.90;;;;;;5068148;28;20503;-72
2022/04/30 09:18:08;;;;;;;30.73;20.10;;;11.60;99.90;;;;;;5068557;28;20406;-71
2022/04/30 09:20:45;;;;;;;33.07;20.90;;;11.50;99.90;;;;;;5068997;28;20442;-72
2022/04/30 09:23:21;;;;;;;37.47;21.40;;;11.50;99.90;;;;;;5065862;28;20441;-71
2022/04/30 09:25:55;;;;;;;37.37;21.63;;;11.40;99.90;;;;;;5068233;28;20449;-72
2022/04/30 09:28:29;;;;;;;31.83;19.67;;;11.40;99.90;;;;;;5068186;28;20493;-71
2022/04/30 09:31:10;;;;;;;30.27;20.17;;;11.50;99.90;;;;;;5068104;28;21177;-72
2022/04/30 09:33:37;;;;;;;33.33;22.30;;;11.70;99.90;;;;;;5067775;28;20472;-72
2022/04/30 09:38:53;;;;;;;36.93;20.73;;;11.90;99.90;;;;;;5068896;28;20494;-72
2022/04/30 09:41:26;;;;;;;33.53;20.83;;;12.30;99.90;;;;;;5067879;28;21094;-72
2022/04/30 09:44:04;;;;;;;31.80;18.83;;;12.00;99.90;;;;;;5064532;28;20450;-72
2022/04/30 09:46:32;;;;;;;31.97;19.90;;;11.90;99.90;;;;;;5050935;28;20441;-72
2022/04/30 09:54:29;;;;;;;32.10;19.10;;;11.90;99.90;;;;;;5063831;28;20489;-72
2022/04/30 09:56:57;;;;;;;34.30;21.10;;;11.90;99.90;;;;;;5066688;28;20506;-71
2022/04/30 09:59:25;;;;;;;33.90;20.53;;;12.00;99.90;;;;;;5069368;28;20245;-69
2022/04/30 10:01:52;;;;;;;33.67;20.87;;;11.80;99.90;;;;;;5071620;28;21057;-72
2022/04/30 10:04:18;;;;;;;28.50;18.90;;;12.00;99.90;;;;;;5069934;28;20459;-71
2022/04/30 10:06:49;;;;;;;41.63;19.70;;;11.90;99.90;;;;;;5067021;28;20793;-71
2022/04/30 10:09:30;;;;;;;29.10;19.00;;;11.80;99.90;;;;;;5067597;28;20180;-71
2022/04/30 10:12:19;;;;;;;32.93;19.80;;;11.80;99.90;;;;;;5066712;28;20419;-72
2022/04/30 10:14:51;;;;;;;29.60;20.77;;;11.80;99.90;;;;;;5054918;28;20496;-71
2022/04/30 10:17:17;;;;;;;28.47;19.30;;;11.80;99.90;;;;;;5065380;28;20473;-72
2022/04/30 10:19:45;;;;;;;24.27;16.90;;;11.80;99.90;;;;;;5067592;28;20415;-70
2022/04/30 10:22:15;;;;;;;24.30;18.00;;;11.80;99.90;;;;;;5066955;28;20419;-70
2022/04/30 10:24:46;;;;;;;30.57;19.10;;;11.80;99.90;;;;;;5065957;28;20446;-71
2022/04/30 10:27:12;;;;;;;29.30;19.77;;;11.70;99.90;;;;;;5067352;28;20430;-71
2022/04/30 10:29:38;;;;;;;29.17;18.23;;;11.60;99.90;;;;;;5067497;28;20463;-72
2022/04/30 10:32:04;;;;;;;29.53;18.27;;;11.70;99.90;;;;;;5066485;28;20939;-71
2022/04/30 10:34:31;;;;;;;30.10;18.90;;;11.60;99.90;;;;;;5067531;28;20539;-72
2022/04/30 10:37:00;;;;;;;27.50;19.23;;;11.60;99.90;;;;;;5065892;28;20227;-70
2022/04/30 10:39:25;;;;;;;31.10;20.47;;;11.60;99.90;;;;;;5061881;28;20515;-72
2022/04/30 10:41:54;;;;;;;27.50;19.10;;;11.70;99.90;;;;;;5065483;28;20429;-71
2022/04/30 10:44:32;;;;;;;31.23;20.47;;;11.70;99.90;;;;;;5067781;28;20897;-71
2022/04/30 10:47:14;;;;;;;29.50;19.93;;;11.70;99.90;;;;;;5066865;28;20497;-72
2022/04/30 10:49:40;;;;;;;30.43;20.17;;;11.70;99.90;;;;;;5067670;28;20437;-71
2022/04/30 10:52:06;;;;;;;32.60;20.53;;;11.80;99.90;;;;;;5066572;28;20423;-71
2022/04/30 10:54:34;;;;;;;31.27;19.83;;;11.90;99.90;;;;;;5067237;28;20204;-71
2022/04/30 10:57:04;;;;;;;25.43;18.97;;;11.90;99.90;;;;;;5064799;28;20515;-72
2022/04/30 10:59:30;;;;;;;27.13;18.97;;;11.80;99.90;;;;;;5067336;28;20422;-71
2022/04/30 11:01:56;;;;;;;32.00;19.20;;;11.70;99.90;;;;;;5065532;28;20505;-71
2022/04/30 11:04:24;;;;;;;28.87;20.20;;;11.70;99.90;;;;;;5067170;28;20988;-71
2022/04/30 11:06:51;;;;;;;29.73;20.47;;;11.70;99.90;;;;;;5068221;28;20588;-71
2022/04/30 11:09:18;;;;;;;30.70;20.40;;;11.70;99.90;;;;;;5070865;28;20418;-72
2022/04/30 11:11:46;;;;;;;27.53;19.10;;;11.80;99.90;;;;;;5069585;28;20510;-71
2022/04/30 11:14:12;;;;;;;29.07;18.67;;;11.80;99.90;;;;;;5070850;28;20530;-72
2022/04/30 11:16:44;;;;;;;25.47;18.67;;;11.80;99.90;;;;;;5069967;28;20553;-72
2022/04/30 11:19:12;;;;;;;23.67;17.80;;;11.70;99.90;;;;;;5067295;28;20173;-71
2022/04/30 11:21:50;;;;;;;30.10;19.07;;;11.80;99.90;;;;;;5070486;28;20419;-72
2022/04/30 11:24:30;;;;;;;28.50;18.37;;;11.80;99.90;;;;;;5070426;28;20911;-71
2022/04/30 11:27:01;;;;;;;32.27;19.53;;;11.80;99.90;;;;;;5069350;28;20896;-71
2022/04/30 11:29:27;;;;;;;30.63;18.30;;;11.90;99.90;;;;;;5069894;28;20427;-71
2022/04/30 11:31:53;;;;;;;28.27;19.40;;;11.90;99.90;;;;;;5069880;28;20418;-72
2022/04/30 11:34:19;;;;;;;25.00;18.30;;;11.90;99.90;;;;;;5070341;28;20568;-72
2022/04/30 11:36:52;;;;;;;23.50;17.67;;;12.00;99.90;;;;;;5063069;28;20454;-72
2022/04/30 11:39:19;;;;;;;25.87;17.93;;;12.10;99.90;;;;;;5069038;28;20442;-72
2022/04/30 11:41:52;;;;;;;28.53;17.60;;;12.10;99.90;;;;;;5066361;28;20415;-71
2022/04/30 11:44:19;;;;;;;27.23;16.80;;;12.20;99.90;;;;;;5070306;28;20514;-71
2022/04/30 11:46:48;;;;;;;21.97;15.23;;;12.20;99.90;;;;;;5069280;28;20423;-71
2022/04/30 11:49:18;;;;;;;21.43;15.30;;;12.30;99.90;;;;;;5066202;28;20744;-71
2022/04/30 11:51:45;;;;;;;17.73;12.67;;;12.30;99.90;;;;;;5069578;28;20487;-71
2022/04/30 11:54:13;;;;;;;17.47;13.77;;;12.40;99.90;;;;;;5070117;28;20839;-71
2022/04/30 11:56:42;;;;;;;23.10;14.93;;;12.40;99.90;;;;;;5068821;28;20966;-71
2022/04/30 11:59:07;;;;;;;17.60;14.23;;;12.40;99.90;;;;;;5068654;28;20427;-71
2022/04/30 12:01:36;;;;;;;16.70;13.70;;;12.40;99.90;;;;;;5069131;28;20414;-71
2022/04/30 12:04:14;;;;;;;16.73;12.67;;;12.50;99.90;;;;;;5069619;28;21003;-72
2022/04/30 12:06:43;;;;;;;15.10;11.80;;;12.60;99.90;;;;;;5068014;28;20427;-72
2022/04/30 12:09:21;;;;;;;14.90;11.90;;;12.60;99.90;;;;;;5069402;28;20419;-71
2022/04/30 12:11:51;;;;;;;13.00;11.10;;;12.70;99.90;;;;;;5067098;28;20987;-72
2022/04/30 12:14:18;;;;;;;12.83;11.10;;;12.70;99.90;;;;;;5068614;28;20449;-71
2022/04/30 12:16:45;;;;;;;11.63;10.30;;;12.60;99.90;;;;;;5068033;28;20461;-71
2022/04/30 12:25:07;;;;;;;15.63;11.07;;;12.70;99.90;;;;;;5062182;28;20786;-72
2022/04/30 12:27:32;;;;;;;15.80;11.30;;;12.90;99.90;;;;;;5068517;28;20452;-71
2022/04/30 12:30:09;;;;;;;15.10;11.50;;;13.00;99.90;;;;;;5067166;28;20865;-74
2022/04/30 12:32:46;;;;;;;17.40;10.70;;;13.10;99.90;;;;;;5067267;28;20282;-73
2022/04/30 12:35:14;;;;;;;14.67;10.53;;;13.00;99.90;;;;;;5064683;28;20472;-73
2022/04/30 12:37:39;;;;;;;14.00;10.10;;;13.00;99.90;;;;;;5068494;28;20434;-73
2022/04/30 12:40:06;;;;;;;14.53;11.20;;;13.10;99.90;;;;;;5068731;28;20510;-74
2022/04/30 12:42:31;;;;;;;15.30;10.37;;;13.10;99.90;;;;;;5068612;28;20206;-72
2022/04/30 12:44:57;;;;;;;13.70;10.10;;;13.20;99.90;;;;;;5068257;28;20533;-75
2022/04/30 12:47:22;;;;;;;13.77;10.83;;;13.10;99.90;;;;;;5066916;28;20614;-73
2022/04/30 12:49:48;;;;;;;13.90;10.30;;;13.10;99.90;;;;;;5068960;28;20215;-73
2022/04/30 12:52:13;;;;;;;15.90;11.47;;;13.00;99.90;;;;;;5068637;28;20233;-73
2022/04/30 12:54:39;;;;;;;16.33;11.60;;;12.80;99.90;;;;;;5067010;28;20212;-73
2022/04/30 12:57:07;;;;;;;15.70;11.50;;;12.70;99.90;;;;;;5068322;28;20295;-74
2022/04/30 12:59:33;;;;;;;15.90;12.10;;;12.70;99.90;;;;;;5067705;28;20180;-72
2022/04/30 13:01:59;;;;;;;16.07;12.13;;;12.80;99.90;;;;;;5065847;28;20813;-71
2022/04/30 13:04:25;;;;;;;19.83;12.23;;;12.70;99.90;;;;;;5067760;28;20438;-73
2022/04/30 13:06:50;;;;;;;15.90;11.43;;;12.70;99.90;;;;;;5066998;28;20191;-73
2022/04/30 13:14:45;;;;;;;13.97;10.27;;;13.00;99.90;;;;;;5067817;28;20449;-72
2022/04/30 13:17:11;;;;;;;15.40;11.70;;;13.00;99.90;;;;;;5068070;28;20466;-72